sensor_id;sensor_type;location;lat;lon;timestamp;temperature;humidity
25128;DHT22;13107;51.304;6.866;2022-12-05T00:02:03;2.40;99.90
25128;DHT22;13107;51.304;6.866;2022-12-05T00:06:05;2.40;99.90
25128;DHT22;13107;51.304;6.866;2022-12-05T00:10:08;2.40;99.90
25128;DHT22;13107;51.304;6.866;2022-12-05T00:14:11;2.40;99.90
25128;DHT22;13107;51.304;6.866;2022-12-05T00:18:13;2.40;99.90
25128;DHT22;13107;51.304;6.866;2022-12-05T00:22:15;2.40;99.90
25128;DHT22;13107;51.304;6.866;2022-12-05T00:26:17;2.50;99.90
25128;DHT22;13107;51.304;6.866;2022-12-05T00:30:19;2.40;99.90
25128;DHT22;13107;51.304;6.866;2022-12-05T00:34:20;2.50;99.90
25128;DHT22;13107;51.304;6.866;2022-12-05T00:38:22;2.50;99.90
25128;DHT22;13107;51.304;6.866;2022-12-05T00:42:24;2.60;99.90
25128;DHT22;13107;51.304;6.866;2022-12-05T00:46:27;2.50;99.90
25128;DHT22;13107;51.304;6.866;2022-12-05T00:50:29;2.50;99.90
25128;DHT22;13107;51.304;6.866;2022-12-05T00:54:31;2.50;99.90
25128;DHT22;13107;51.304;6.866;2022-12-05T00:58:33;2.60;99.90
25128;DHT22;13107;51.304;6.866;2022-12-05T01:02:35;2.60;99.90
25128;DHT22;13107;51.304;6.866;2022-12-05T01:06:37;2.50;99.90
25128;DHT22;13107;51.304;6.866;2022-12-05T01:10:39;2.50;99.90
25128;DHT22;13107;51.304;6.866;2022-12-05T01:14:40;2.50;99.90
25128;DHT22;13107;51.304;6.866;2022-12-05T01:18:42;2.50;99.90
25128;DHT22;13107;51.304;6.866;2022-12-05T01:22:44;2.50;99.90
25128;DHT22;13107;51.304;6.866;2022-12-05T01:26:46;2.50;99.90
25128;DHT22;13107;51.304;6.866;2022-12-05T01:30:49;2.50;99.90
25128;DHT22;13107;51.304;6.866;2022-12-05T01:34:50;2.50;99.90
25128;DHT22;13107;51.304;6.866;2022-12-05T01:38:52;2.40;99.90
25128;DHT22;13107;51.304;6.866;2022-12-05T01:42:54;2.50;99.90
25128;DHT22;13107;51.304;6.866;2022-12-05T01:46:56;2.50;99.90
25128;DHT22;13107;51.304;6.866;2022-12-05T01:50:59;2.50;99.90
25128;DHT22;13107;51.304;6.866;2022-12-05T01:55:09;2.50;99.90
25128;DHT22;13107;51.304;6.866;2022-12-05T01:59:12;2.60;99.90
25128;DHT22;13107;51.304;6.866;2022-12-05T02:03:17;2.60;99.90
25128;DHT22;13107;51.304;6.866;2022-12-05T02:07:19;2.60;99.90
25128;DHT22;13107;51.304;6.866;2022-12-05T02:11:22;2.50;99.90
25128;DHT22;13107;51.304;6.866;2022-12-05T02:15:47;2.50;99.90
25128;DHT22;13107;51.304;6.866;2022-12-05T02:46:17;2.50;99.90
25128;DHT22;13107;51.304;6.866;2022-12-05T02:50:23;2.60;99.90
25128;DHT22;13107;51.304;6.866;2022-12-05T02:54:28;2.60;99.90
25128;DHT22;13107;51.304;6.866;2022-12-05T02:58:35;2.60;99.90
25128;DHT22;13107;51.304;6.866;2022-12-05T03:02:39;2.60;99.90
25128;DHT22;13107;51.304;6.866;2022-12-05T03:10:55;2.60;99.90
25128;DHT22;13107;51.304;6.866;2022-12-05T03:15:13;2.50;99.90
25128;DHT22;13107;51.304;6.866;2022-12-05T03:19:27;2.60;99.90
25128;DHT22;13107;51.304;6.866;2022-12-05T03:23:37;2.60;99.90
25128;DHT22;13107;51.304;6.866;2022-12-05T03:27:52;2.60;99.90
25128;DHT22;13107;51.304;6.866;2022-12-05T03:36:33;2.60;99.90
25128;DHT22;13107;51.304;6.866;2022-12-05T03:40:48;2.60;99.90
25128;DHT22;13107;51.304;6.866;2022-12-05T03:45:13;2.60;99.90
25128;DHT22;13107;51.304;6.866;2022-12-05T03:49:26;2.60;99.90
25128;DHT22;13107;51.304;6.866;2022-12-05T03:53:39;2.50;99.90
25128;DHT22;13107;51.304;6.866;2022-12-05T03:57:48;2.50;99.90
25128;DHT22;13107;51.304;6.866;2022-12-05T04:01:53;2.60;99.90
25128;DHT22;13107;51.304;6.866;2022-12-05T04:05:58;2.60;99.90
25128;DHT22;13107;51.304;6.866;2022-12-05T04:10:06;2.60;99.90
25128;DHT22;13107;51.304;6.866;2022-12-05T04:14:17;2.60;99.90
25128;DHT22;13107;51.304;6.866;2022-12-05T04:18:22;2.60;99.90
25128;DHT22;13107;51.304;6.866;2022-12-05T04:22:26;2.70;99.90
25128;DHT22;13107;51.304;6.866;2022-12-05T04:26:30;2.60;99.90
25128;DHT22;13107;51.304;6.866;2022-12-05T04:30:47;2.60;99.90
25128;DHT22;13107;51.304;6.866;2022-12-05T04:34:55;2.60;99.90
25128;DHT22;13107;51.304;6.866;2022-12-05T04:39:15;2.50;99.90
25128;DHT22;13107;51.304;6.866;2022-12-05T04:43:19;2.50;99.90
25128;DHT22;13107;51.304;6.866;2022-12-05T04:47:24;2.60;99.90
25128;DHT22;13107;51.304;6.866;2022-12-05T04:51:31;2.50;99.90
25128;DHT22;13107;51.304;6.866;2022-12-05T04:55:35;2.60;99.90
25128;DHT22;13107;51.304;6.866;2022-12-05T04:59:40;2.50;99.90
25128;DHT22;13107;51.304;6.866;2022-12-05T05:03:51;2.60;99.90
25128;DHT22;13107;51.304;6.866;2022-12-05T05:07:55;2.50;99.90
25128;DHT22;13107;51.304;6.866;2022-12-05T05:11:56;2.50;99.90
25128;DHT22;13107;51.304;6.866;2022-12-05T05:15:58;2.50;99.90
25128;DHT22;13107;51.304;6.866;2022-12-05T05:20:00;2.50;99.90
25128;DHT22;13107;51.304;6.866;2022-12-05T05:24:20;2.50;99.90
25128;DHT22;13107;51.304;6.866;2022-12-05T05:28:23;2.60;99.90
25128;DHT22;13107;51.304;6.866;2022-12-05T05:32:25;2.50;99.90
25128;DHT22;13107;51.304;6.866;2022-12-05T05:36:27;2.50;99.90
25128;DHT22;13107;51.304;6.866;2022-12-05T05:40:29;2.50;99.90
25128;DHT22;13107;51.304;6.866;2022-12-05T05:44:30;2.50;99.90
25128;DHT22;13107;51.304;6.866;2022-12-05T05:48:32;2.50;99.90
25128;DHT22;13107;51.304;6.866;2022-12-05T05:52:35;2.50;99.90
25128;DHT22;13107;51.304;6.866;2022-12-05T05:56:38;2.50;99.90
25128;DHT22;13107;51.304;6.866;2022-12-05T06:00:40;2.50;99.90
25128;DHT22;13107;51.304;6.866;2022-12-05T06:04:42;2.50;99.90
25128;DHT22;13107;51.304;6.866;2022-12-05T06:08:44;2.60;99.90
25128;DHT22;13107;51.304;6.866;2022-12-05T06:12:46;2.60;99.90
25128;DHT22;13107;51.304;6.866;2022-12-05T06:16:48;2.60;99.90
25128;DHT22;13107;51.304;6.866;2022-12-05T06:20:54;2.50;99.90
25128;DHT22;13107;51.304;6.866;2022-12-05T06:24:57;2.60;99.90
25128;DHT22;13107;51.304;6.866;2022-12-05T06:28:58;2.60;99.90
25128;DHT22;13107;51.304;6.866;2022-12-05T06:33:00;2.60;99.90
25128;DHT22;13107;51.304;6.866;2022-12-05T06:37:02;2.50;99.90
25128;DHT22;13107;51.304;6.866;2022-12-05T06:41:08;2.40;99.90
25128;DHT22;13107;51.304;6.866;2022-12-05T06:45:11;2.40;99.90
25128;DHT22;13107;51.304;6.866;2022-12-05T06:49:12;2.40;99.90
25128;DHT22;13107;51.304;6.866;2022-12-05T06:53:14;2.40;99.90
25128;DHT22;13107;51.304;6.866;2022-12-05T06:57:16;2.40;99.90
25128;DHT22;13107;51.304;6.866;2022-12-05T07:01:20;2.30;99.90
25128;DHT22;13107;51.304;6.866;2022-12-05T07:05:43;2.30;99.90
25128;DHT22;13107;51.304;6.866;2022-12-05T07:09:45;2.20;99.90
25128;DHT22;13107;51.304;6.866;2022-12-05T07:13:48;2.20;99.90
25128;DHT22;13107;51.304;6.866;2022-12-05T07:17:50;2.20;99.90
25128;DHT22;13107;51.304;6.866;2022-12-05T07:21:51;2.20;99.90
25128;DHT22;13107;51.304;6.866;2022-12-05T07:25:53;2.10;99.90
25128;DHT22;13107;51.304;6.866;2022-12-05T07:29:55;2.10;99.90
25128;DHT22;13107;51.304;6.866;2022-12-05T07:33:58;2.10;99.90
25128;DHT22;13107;51.304;6.866;2022-12-05T07:37:59;2.10;99.90
25128;DHT22;13107;51.304;6.866;2022-12-05T07:42:01;2.10;99.90
25128;DHT22;13107;51.304;6.866;2022-12-05T07:46:04;2.00;99.90
25128;DHT22;13107;51.304;6.866;2022-12-05T07:50:06;1.90;99.90
25128;DHT22;13107;51.304;6.866;2022-12-05T07:54:08;1.90;99.90
25128;DHT22;13107;51.304;6.866;2022-12-05T07:58:10;1.90;99.90
25128;DHT22;13107;51.304;6.866;2022-12-05T08:02:12;1.80;99.90
25128;DHT22;13107;51.304;6.866;2022-12-05T08:06:20;1.80;99.90
25128;DHT22;13107;51.304;6.866;2022-12-05T08:10:22;1.90;99.90
25128;DHT22;13107;51.304;6.866;2022-12-05T08:14:24;1.90;99.90
25128;DHT22;13107;51.304;6.866;2022-12-05T08:18:25;1.90;99.90
25128;DHT22;13107;51.304;6.866;2022-12-05T08:22:28;1.90;99.90
25128;DHT22;13107;51.304;6.866;2022-12-05T08:26:30;1.90;99.90
25128;DHT22;13107;51.304;6.866;2022-12-05T08:30:32;2.00;99.90
25128;DHT22;13107;51.304;6.866;2022-12-05T08:34:35;2.00;99.90
25128;DHT22;13107;51.304;6.866;2022-12-05T08:38:37;2.00;99.90
25128;DHT22;13107;51.304;6.866;2022-12-05T08:42:39;2.00;99.90
25128;DHT22;13107;51.304;6.866;2022-12-05T08:46:42;2.00;99.90
25128;DHT22;13107;51.304;6.866;2022-12-05T08:50:45;2.10;99.90
25128;DHT22;13107;51.304;6.866;2022-12-05T08:54:47;2.10;99.90
25128;DHT22;13107;51.304;6.866;2022-12-05T08:58:49;2.10;99.90
25128;DHT22;13107;51.304;6.866;2022-12-05T09:02:51;2.00;99.90
25128;DHT22;13107;51.304;6.866;2022-12-05T09:06:53;2.10;99.90
25128;DHT22;13107;51.304;6.866;2022-12-05T09:10:54;2.10;99.90
25128;DHT22;13107;51.304;6.866;2022-12-05T09:14:56;2.10;99.90
25128;DHT22;13107;51.304;6.866;2022-12-05T09:18:58;2.10;99.90
25128;DHT22;13107;51.304;6.866;2022-12-05T09:23:00;2.10;99.90
25128;DHT22;13107;51.304;6.866;2022-12-05T09:27:02;2.20;99.90
25128;DHT22;13107;51.304;6.866;2022-12-05T09:31:15;2.30;99.90
25128;DHT22;13107;51.304;6.866;2022-12-05T09:35:17;2.40;99.90
25128;DHT22;13107;51.304;6.866;2022-12-05T09:39:18;2.50;99.90
25128;DHT22;13107;51.304;6.866;2022-12-05T09:43:48;2.50;99.90
25128;DHT22;13107;51.304;6.866;2022-12-05T09:47:55;2.40;99.90
25128;DHT22;13107;51.304;6.866;2022-12-05T09:51:59;2.40;99.90
25128;DHT22;13107;51.304;6.866;2022-12-05T10:00:10;2.30;99.90
25128;DHT22;13107;51.304;6.866;2022-12-05T10:13:24;2.50;99.90
25128;DHT22;13107;51.304;6.866;2022-12-05T10:21:37;2.40;99.90
25128;DHT22;13107;51.304;6.866;2022-12-05T10:25:40;2.40;99.90
25128;DHT22;13107;51.304;6.866;2022-12-05T10:30:06;2.30;99.90
25128;DHT22;13107;51.304;6.866;2022-12-05T10:34:25;2.30;99.90
25128;DHT22;13107;51.304;6.866;2022-12-05T10:38:30;2.40;99.90
25128;DHT22;13107;51.304;6.866;2022-12-05T10:42:34;2.40;99.90
25128;DHT22;13107;51.304;6.866;2022-12-05T10:46:36;2.30;99.90
25128;DHT22;13107;51.304;6.866;2022-12-05T10:50:38;2.40;99.90
25128;DHT22;13107;51.304;6.866;2022-12-05T10:54:45;2.30;99.90
25128;DHT22;13107;51.304;6.866;2022-12-05T10:58:54;2.30;99.90
25128;DHT22;13107;51.304;6.866;2022-12-05T11:03:01;2.30;99.90
25128;DHT22;13107;51.304;6.866;2022-12-05T11:07:04;2.30;99.90
25128;DHT22;13107;51.304;6.866;2022-12-05T11:11:17;2.30;99.90
25128;DHT22;13107;51.304;6.866;2022-12-05T11:15:23;2.50;99.90
25128;DHT22;13107;51.304;6.866;2022-12-05T11:19:34;2.50;99.90
25128;DHT22;13107;51.304;6.866;2022-12-05T11:23:37;2.40;99.90
25128;DHT22;13107;51.304;6.866;2022-12-05T11:27:39;2.60;99.90
25128;DHT22;13107;51.304;6.866;2022-12-05T11:31:50;2.50;99.90
25128;DHT22;13107;51.304;6.866;2022-12-05T11:35:54;2.40;99.90
25128;DHT22;13107;51.304;6.866;2022-12-05T11:39:56;2.50;99.90
25128;DHT22;13107;51.304;6.866;2022-12-05T11:48:27;2.60;99.90
25128;DHT22;13107;51.304;6.866;2022-12-05T11:52:55;2.60;99.90
25128;DHT22;13107;51.304;6.866;2022-12-05T12:01:56;2.50;99.90
25128;DHT22;13107;51.304;6.866;2022-12-05T12:19:20;2.30;99.90
25128;DHT22;13107;51.304;6.866;2022-12-05T12:32:26;2.10;99.90
25128;DHT22;13107;51.304;6.866;2022-12-05T12:36:31;2.10;99.90
25128;DHT22;13107;51.304;6.866;2022-12-05T12:40:48;1.90;99.90
25128;DHT22;13107;51.304;6.866;2022-12-05T12:53:41;1.80;99.90
25128;DHT22;13107;51.304;6.866;2022-12-05T13:02:16;1.60;99.90
25128;DHT22;13107;51.304;6.866;2022-12-05T13:06:58;1.50;99.90
25128;DHT22;13107;51.304;6.866;2022-12-05T13:11:06;1.40;99.90
25128;DHT22;13107;51.304;6.866;2022-12-05T13:15:15;1.30;99.90
25128;DHT22;13107;51.304;6.866;2022-12-05T13:19:51;1.30;99.90
25128;DHT22;13107;51.304;6.866;2022-12-05T13:23:56;1.20;99.90
25128;DHT22;13107;51.304;6.866;2022-12-05T13:28:06;1.10;99.90
25128;DHT22;13107;51.304;6.866;2022-12-05T13:32:37;1.20;99.90
25128;DHT22;13107;51.304;6.866;2022-12-05T13:36:41;1.10;99.90
25128;DHT22;13107;51.304;6.866;2022-12-05T13:41:01;1.10;99.90
25128;DHT22;13107;51.304;6.866;2022-12-05T13:45:22;1.10;99.90
25128;DHT22;13107;51.304;6.866;2022-12-05T13:53:57;1.20;99.90
25128;DHT22;13107;51.304;6.866;2022-12-05T14:32:30;1.10;99.90
25128;DHT22;13107;51.304;6.866;2022-12-05T14:36:32;1.10;99.90
25128;DHT22;13107;51.304;6.866;2022-12-05T14:40:39;1.10;99.90
25128;DHT22;13107;51.304;6.866;2022-12-05T14:44:46;1.10;99.90
25128;DHT22;13107;51.304;6.866;2022-12-05T14:48:48;1.10;99.90
25128;DHT22;13107;51.304;6.866;2022-12-05T14:57:16;0.90;99.90
25128;DHT22;13107;51.304;6.866;2022-12-05T15:01:19;0.90;99.90
25128;DHT22;13107;51.304;6.866;2022-12-05T15:05:32;0.90;99.90
25128;DHT22;13107;51.304;6.866;2022-12-05T15:14:19;0.90;99.90
25128;DHT22;13107;51.304;6.866;2022-12-05T15:22:46;0.90;99.90
25128;DHT22;13107;51.304;6.866;2022-12-05T15:26:52;0.80;99.90
25128;DHT22;13107;51.304;6.866;2022-12-05T15:30:55;0.70;99.90
25128;DHT22;13107;51.304;6.866;2022-12-05T15:35:05;0.70;99.90
25128;DHT22;13107;51.304;6.866;2022-12-05T15:39:23;0.70;99.90
25128;DHT22;13107;51.304;6.866;2022-12-05T15:43:30;0.70;99.90
25128;DHT22;13107;51.304;6.866;2022-12-05T15:47:31;0.60;99.90
25128;DHT22;13107;51.304;6.866;2022-12-05T15:51:36;0.70;99.90
25128;DHT22;13107;51.304;6.866;2022-12-05T15:59:50;0.70;99.90
25128;DHT22;13107;51.304;6.866;2022-12-05T16:03:55;0.70;99.90
25128;DHT22;13107;51.304;6.866;2022-12-05T16:08:00;0.70;99.90
25128;DHT22;13107;51.304;6.866;2022-12-05T16:12:05;0.70;99.90
25128;DHT22;13107;51.304;6.866;2022-12-05T16:16:20;0.70;99.90
25128;DHT22;13107;51.304;6.866;2022-12-05T16:20:28;0.80;99.90
25128;DHT22;13107;51.304;6.866;2022-12-05T16:24:31;0.80;99.90
25128;DHT22;13107;51.304;6.866;2022-12-05T16:28:33;0.80;99.90
25128;DHT22;13107;51.304;6.866;2022-12-05T16:32:35;0.80;99.90
25128;DHT22;13107;51.304;6.866;2022-12-05T16:36:45;0.80;99.90
25128;DHT22;13107;51.304;6.866;2022-12-05T16:53:31;0.80;99.90
25128;DHT22;13107;51.304;6.866;2022-12-05T16:57:33;0.80;99.90
25128;DHT22;13107;51.304;6.866;2022-12-05T17:01:34;0.80;99.90
25128;DHT22;13107;51.304;6.866;2022-12-05T17:05:40;0.80;99.90
25128;DHT22;13107;51.304;6.866;2022-12-05T17:09:41;0.80;99.90
25128;DHT22;13107;51.304;6.866;2022-12-05T17:13:44;0.80;99.90
25128;DHT22;13107;51.304;6.866;2022-12-05T17:17:47;0.80;99.90
25128;DHT22;13107;51.304;6.866;2022-12-05T17:21:49;0.80;99.90
25128;DHT22;13107;51.304;6.866;2022-12-05T17:25:53;0.80;99.90
25128;DHT22;13107;51.304;6.866;2022-12-05T17:29:54;0.80;99.90
25128;DHT22;13107;51.304;6.866;2022-12-05T17:33:57;0.80;99.90
25128;DHT22;13107;51.304;6.866;2022-12-05T17:37:58;0.80;99.90
25128;DHT22;13107;51.304;6.866;2022-12-05T17:42:00;0.80;99.90
25128;DHT22;13107;51.304;6.866;2022-12-05T17:46:02;0.80;99.90
25128;DHT22;13107;51.304;6.866;2022-12-05T17:50:05;0.80;99.90
25128;DHT22;13107;51.304;6.866;2022-12-05T17:54:06;0.80;99.90
25128;DHT22;13107;51.304;6.866;2022-12-05T17:58:09;0.80;99.90
25128;DHT22;13107;51.304;6.866;2022-12-05T18:02:11;0.80;99.90
25128;DHT22;13107;51.304;6.866;2022-12-05T18:06:13;0.80;99.90
25128;DHT22;13107;51.304;6.866;2022-12-05T18:10:17;0.80;99.90
25128;DHT22;13107;51.304;6.866;2022-12-05T18:14:19;0.90;99.90
25128;DHT22;13107;51.304;6.866;2022-12-05T18:18:21;0.80;99.90
25128;DHT22;13107;51.304;6.866;2022-12-05T18:22:24;0.80;99.90
25128;DHT22;13107;51.304;6.866;2022-12-05T18:26:26;0.90;99.90
25128;DHT22;13107;51.304;6.866;2022-12-05T18:30:28;0.80;99.90
25128;DHT22;13107;51.304;6.866;2022-12-05T18:34:30;0.90;99.90
25128;DHT22;13107;51.304;6.866;2022-12-05T18:38:31;0.90;99.90
25128;DHT22;13107;51.304;6.866;2022-12-05T18:42:34;0.90;99.90
25128;DHT22;13107;51.304;6.866;2022-12-05T18:46:36;0.90;99.90
25128;DHT22;13107;51.304;6.866;2022-12-05T18:50:38;0.90;99.90
25128;DHT22;13107;51.304;6.866;2022-12-05T18:54:40;0.90;99.90
25128;DHT22;13107;51.304;6.866;2022-12-05T18:58:41;0.80;99.90
25128;DHT22;13107;51.304;6.866;2022-12-05T19:02:43;0.80;99.90
25128;DHT22;13107;51.304;6.866;2022-12-05T19:06:50;0.90;99.90
25128;DHT22;13107;51.304;6.866;2022-12-05T19:10:52;0.90;99.90
25128;DHT22;13107;51.304;6.866;2022-12-05T19:14:53;0.90;99.90
25128;DHT22;13107;51.304;6.866;2022-12-05T19:18:58;0.80;99.90
25128;DHT22;13107;51.304;6.866;2022-12-05T19:23:00;0.80;99.90
25128;DHT22;13107;51.304;6.866;2022-12-05T19:27:01;0.80;99.90
25128;DHT22;13107;51.304;6.866;2022-12-05T19:31:08;0.90;99.90
25128;DHT22;13107;51.304;6.866;2022-12-05T19:35:10;0.80;99.90
25128;DHT22;13107;51.304;6.866;2022-12-05T19:39:17;0.90;99.90
25128;DHT22;13107;51.304;6.866;2022-12-05T19:43:19;0.90;99.90
25128;DHT22;13107;51.304;6.866;2022-12-05T19:47:21;0.90;99.90
25128;DHT22;13107;51.304;6.866;2022-12-05T19:51:23;0.90;99.90
25128;DHT22;13107;51.304;6.866;2022-12-05T19:55:25;0.90;99.90
25128;DHT22;13107;51.304;6.866;2022-12-05T19:59:26;0.80;99.90
25128;DHT22;13107;51.304;6.866;2022-12-05T20:03:28;0.90;99.90
25128;DHT22;13107;51.304;6.866;2022-12-05T20:07:30;0.80;99.90
25128;DHT22;13107;51.304;6.866;2022-12-05T20:11:32;0.90;99.90
25128;DHT22;13107;51.304;6.866;2022-12-05T20:15:33;0.80;99.90
25128;DHT22;13107;51.304;6.866;2022-12-05T20:19:35;0.90;99.90
25128;DHT22;13107;51.304;6.866;2022-12-05T20:23:37;0.90;99.90
25128;DHT22;13107;51.304;6.866;2022-12-05T20:27:39;0.90;99.90
25128;DHT22;13107;51.304;6.866;2022-12-05T20:31:41;0.90;99.90
25128;DHT22;13107;51.304;6.866;2022-12-05T20:35:43;0.90;99.90
25128;DHT22;13107;51.304;6.866;2022-12-05T20:39:45;0.90;99.90
25128;DHT22;13107;51.304;6.866;2022-12-05T20:43:50;0.90;99.90
25128;DHT22;13107;51.304;6.866;2022-12-05T20:47:53;0.90;99.90
25128;DHT22;13107;51.304;6.866;2022-12-05T20:51:54;0.90;99.90
25128;DHT22;13107;51.304;6.866;2022-12-05T20:56:04;0.90;99.90
25128;DHT22;13107;51.304;6.866;2022-12-05T21:00:07;1.00;99.90
25128;DHT22;13107;51.304;6.866;2022-12-05T21:04:10;0.90;99.90
25128;DHT22;13107;51.304;6.866;2022-12-05T21:08:11;0.90;99.90
25128;DHT22;13107;51.304;6.866;2022-12-05T21:12:13;0.90;99.90
25128;DHT22;13107;51.304;6.866;2022-12-05T21:16:19;0.90;99.90
25128;DHT22;13107;51.304;6.866;2022-12-05T21:20:21;0.90;99.90
25128;DHT22;13107;51.304;6.866;2022-12-05T21:24:23;0.90;99.90
25128;DHT22;13107;51.304;6.866;2022-12-05T21:28:25;0.90;99.90
25128;DHT22;13107;51.304;6.866;2022-12-05T21:32:26;1.00;99.90
25128;DHT22;13107;51.304;6.866;2022-12-05T21:36:30;1.00;99.90
25128;DHT22;13107;51.304;6.866;2022-12-05T21:40:32;1.00;99.90
25128;DHT22;13107;51.304;6.866;2022-12-05T21:44:34;1.00;99.90
25128;DHT22;13107;51.304;6.866;2022-12-05T21:48:36;1.00;99.90
25128;DHT22;13107;51.304;6.866;2022-12-05T21:52:38;1.00;99.90
25128;DHT22;13107;51.304;6.866;2022-12-05T21:56:40;0.90;99.90
25128;DHT22;13107;51.304;6.866;2022-12-05T22:00:42;0.90;99.90
25128;DHT22;13107;51.304;6.866;2022-12-05T22:04:44;1.00;99.90
25128;DHT22;13107;51.304;6.866;2022-12-05T22:08:46;1.00;99.90
25128;DHT22;13107;51.304;6.866;2022-12-05T22:12:47;1.10;99.90
25128;DHT22;13107;51.304;6.866;2022-12-05T22:16:49;1.10;99.90
25128;DHT22;13107;51.304;6.866;2022-12-05T22:20:58;1.10;99.90
25128;DHT22;13107;51.304;6.866;2022-12-05T22:25:00;1.10;99.90
25128;DHT22;13107;51.304;6.866;2022-12-05T22:29:02;1.10;99.90
25128;DHT22;13107;51.304;6.866;2022-12-05T22:33:04;1.10;99.90
25128;DHT22;13107;51.304;6.866;2022-12-05T22:37:05;1.10;99.90
25128;DHT22;13107;51.304;6.866;2022-12-05T22:41:10;1.10;99.90
25128;DHT22;13107;51.304;6.866;2022-12-05T22:45:14;1.10;99.90
25128;DHT22;13107;51.304;6.866;2022-12-05T22:49:16;1.10;99.90
25128;DHT22;13107;51.304;6.866;2022-12-05T22:53:24;1.10;99.90
25128;DHT22;13107;51.304;6.866;2022-12-05T22:57:25;1.10;99.90
25128;DHT22;13107;51.304;6.866;2022-12-05T23:01:32;1.10;99.90
25128;DHT22;13107;51.304;6.866;2022-12-05T23:05:38;1.20;99.90
25128;DHT22;13107;51.304;6.866;2022-12-05T23:09:40;1.10;99.90
25128;DHT22;13107;51.304;6.866;2022-12-05T23:13:41;1.20;99.90
25128;DHT22;13107;51.304;6.866;2022-12-05T23:17:46;1.20;99.90
25128;DHT22;13107;51.304;6.866;2022-12-05T23:21:47;1.20;99.90
25128;DHT22;13107;51.304;6.866;2022-12-05T23:25:49;1.20;99.90
25128;DHT22;13107;51.304;6.866;2022-12-05T23:29:51;1.10;99.90
25128;DHT22;13107;51.304;6.866;2022-12-05T23:33:53;1.20;99.90
25128;DHT22;13107;51.304;6.866;2022-12-05T23:38:01;1.20;99.90
25128;DHT22;13107;51.304;6.866;2022-12-05T23:42:03;1.20;99.90
25128;DHT22;13107;51.304;6.866;2022-12-05T23:46:05;1.10;99.90
25128;DHT22;13107;51.304;6.866;2022-12-05T23:50:07;1.10;99.90
25128;DHT22;13107;51.304;6.866;2022-12-05T23:54:10;1.10;99.90
25128;DHT22;13107;51.304;6.866;2022-12-05T23:58:12;1.20;99.90
